createdAt,value
2023-03-15T00:00:42.471Z,6.07
2023-03-15T00:03:10.296Z,5.03
2023-03-15T00:05:41.625Z,19.10
2023-03-15T00:08:09.335Z,7.77
2023-03-15T00:10:36.990Z,6.40
2023-03-15T00:13:04.708Z,10.57
2023-03-15T00:15:32.433Z,5.53
2023-03-15T00:18:03.227Z,3.63
2023-03-15T00:20:31.159Z,5.27
2023-03-15T00:22:58.837Z,8.60
2023-03-15T00:25:26.589Z,4.47
2023-03-15T00:27:54.312Z,3.90
2023-03-15T00:30:22.033Z,6.13
2023-03-15T00:32:49.791Z,7.93
2023-03-15T00:35:18.366Z,4.60
2023-03-15T00:37:46.187Z,3.53
2023-03-15T00:40:13.939Z,4.77
2023-03-15T00:42:41.646Z,11.23
2023-03-15T00:45:10.635Z,5.40
2023-03-15T00:47:38.351Z,3.97
2023-03-15T00:50:06.272Z,4.07
2023-03-15T00:52:38.360Z,4.17
2023-03-15T00:55:15.647Z,3.83
2023-03-15T00:57:44.260Z,8.20
2023-03-15T01:00:14.544Z,3.10
2023-03-15T01:02:42.269Z,2.87
2023-03-15T01:05:10.221Z,2.07
2023-03-15T01:07:37.893Z,3.90
2023-03-15T01:10:06.235Z,5.90
2023-03-15T01:12:34.367Z,5.97
2023-03-15T01:15:03.278Z,3.00
2023-03-15T01:17:31.055Z,2.93
2023-03-15T01:19:59.490Z,3.63
2023-03-15T01:22:27.260Z,5.50
2023-03-15T01:24:55.032Z,4.93
2023-03-15T01:27:22.706Z,3.07
2023-03-15T01:29:52.797Z,6.37
2023-03-15T01:32:20.505Z,5.37
2023-03-15T01:38:39.965Z,5.30
2023-03-15T01:41:08.336Z,4.03
2023-03-15T01:43:36.137Z,5.67
2023-03-15T01:46:25.199Z,3.90
2023-03-15T01:49:09.941Z,6.73
2023-03-15T01:51:50.886Z,6.73
2023-03-15T01:54:30.256Z,3.43
2023-03-15T01:57:01.174Z,2.27
2023-03-15T01:59:32.926Z,3.17
2023-03-15T02:02:00.809Z,2.90
2023-03-15T02:04:38.239Z,4.53
2023-03-15T02:07:06.260Z,4.00
2023-03-15T02:09:52.120Z,2.83
2023-03-15T02:12:19.961Z,8.03
2023-03-15T02:14:50.444Z,4.00
2023-03-15T02:17:20.593Z,5.70
2023-03-15T02:19:53.032Z,2.33
2023-03-15T02:22:27.455Z,4.17
2023-03-15T02:25:01.319Z,5.17
2023-03-15T02:27:30.704Z,3.80
2023-03-15T02:29:58.429Z,3.30
2023-03-15T02:32:26.154Z,3.63
2023-03-15T02:34:53.905Z,11.10
2023-03-15T02:37:21.634Z,19.00
2023-03-15T02:39:49.381Z,17.33
2023-03-15T02:42:17.108Z,9.73
2023-03-15T02:44:45.297Z,10.17
2023-03-15T02:47:21.056Z,7.00
2023-03-15T02:49:50.699Z,4.33
2023-03-15T02:52:18.410Z,3.73
2023-03-15T02:54:46.181Z,3.43
2023-03-15T02:57:14.990Z,3.90
2023-03-15T02:59:43.874Z,2.50
2023-03-15T03:02:13.253Z,1.90
2023-03-15T03:04:43.013Z,2.50
2023-03-15T03:07:10.927Z,4.33
2023-03-15T03:09:49.142Z,4.73
2023-03-15T03:12:18.372Z,7.77
2023-03-15T03:14:46.175Z,6.00
2023-03-15T03:17:17.804Z,4.17
2023-03-15T03:19:46.184Z,7.30
2023-03-15T03:22:15.310Z,12.23
2023-03-15T03:24:46.184Z,14.70
2023-03-15T03:27:16.642Z,9.23
2023-03-15T03:29:46.483Z,11.33
2023-03-15T03:32:14.933Z,13.47
2023-03-15T03:34:48.272Z,12.83
2023-03-15T03:37:20.538Z,15.23
2023-03-15T03:40:09.259Z,9.23
2023-03-15T03:42:37.562Z,8.80
2023-03-15T03:45:07.192Z,7.60
2023-03-15T03:47:40.274Z,6.00
2023-03-15T03:50:10.686Z,9.27
2023-03-15T03:52:38.565Z,4.90
2023-03-15T03:55:13.634Z,7.13
2023-03-15T03:57:42.705Z,4.33
2023-03-15T04:00:14.914Z,2.60
2023-03-15T04:02:42.863Z,10.80
2023-03-15T04:05:11.520Z,7.07
2023-03-15T04:07:39.850Z,11.73
2023-03-15T04:10:09.477Z,7.20
2023-03-15T04:12:37.532Z,10.30
2023-03-15T04:15:05.739Z,7.37
2023-03-15T04:17:34.373Z,3.67
2023-03-15T04:20:02.222Z,3.83
2023-03-15T04:22:32.066Z,5.53
2023-03-15T04:25:09.665Z,5.77
2023-03-15T04:28:03.021Z,3.13
2023-03-15T04:30:43.141Z,5.40
2023-03-15T04:33:37.140Z,2.87
2023-03-15T04:36:18.941Z,4.20
2023-03-15T04:39:07.341Z,2.63
2023-03-15T04:42:04.610Z,7.33
2023-03-15T04:44:48.458Z,6.27
2023-03-15T04:47:34.538Z,5.30
2023-03-15T04:50:24.213Z,5.37
2023-03-15T04:52:58.968Z,3.17
2023-03-15T04:55:48.395Z,10.97
2023-03-15T04:58:42.223Z,22.60
2023-03-15T05:01:31.208Z,21.07
2023-03-15T05:04:15.438Z,22.47
2023-03-15T05:07:05.903Z,26.60
2023-03-15T05:10:00.253Z,37.00
2023-03-15T05:12:51.022Z,10.13
2023-03-15T05:15:27.103Z,4.67
2023-03-15T05:18:21.918Z,2.80
2023-03-15T05:21:07.915Z,3.23
2023-03-15T05:23:58.718Z,7.00
2023-03-15T05:26:54.296Z,46.90
2023-03-15T05:29:45.621Z,117.63
2023-03-15T05:32:34.649Z,188.57
2023-03-15T05:35:02.775Z,220.70
2023-03-15T05:37:42.404Z,314.17
2023-03-15T05:40:45.804Z,248.00
2023-03-15T05:43:30.993Z,94.93
2023-03-15T05:46:18.117Z,74.03
2023-03-15T05:49:00.286Z,148.40
2023-03-15T05:51:39.355Z,196.83
2023-03-15T05:54:25.052Z,195.57
2023-03-15T05:57:05.431Z,140.00
2023-03-15T05:59:33.176Z,97.60
2023-03-15T06:02:12.745Z,54.43
2023-03-15T06:04:48.082Z,64.03
2023-03-15T06:07:21.171Z,67.00
2023-03-15T06:09:49.114Z,46.80
2023-03-15T06:12:16.890Z,14.83
2023-03-15T06:14:44.592Z,10.33
2023-03-15T06:17:12.688Z,9.33
2023-03-15T06:19:44.152Z,4.63
2023-03-15T06:22:11.909Z,4.13
2023-03-15T06:24:48.050Z,7.47
2023-03-15T06:27:15.902Z,6.97
2023-03-15T06:29:43.584Z,5.13
2023-03-15T06:32:11.533Z,10.53
2023-03-15T06:34:42.119Z,11.67
2023-03-15T06:37:10.197Z,9.60
2023-03-15T06:39:38.675Z,16.33
2023-03-15T06:42:08.354Z,16.03
2023-03-15T06:44:40.744Z,9.53
2023-03-15T06:47:10.463Z,7.63
2023-03-15T06:49:38.936Z,5.07
2023-03-15T06:52:07.128Z,10.47
2023-03-15T06:54:34.900Z,5.57
2023-03-15T06:57:02.665Z,7.63
2023-03-15T06:59:30.348Z,8.27
2023-03-15T07:01:58.128Z,5.33
2023-03-15T07:04:25.980Z,6.57
2023-03-15T07:06:54.017Z,10.83
2023-03-15T07:09:21.702Z,8.70
2023-03-15T07:11:49.460Z,9.83
2023-03-15T07:14:17.149Z,6.33
2023-03-15T07:16:44.893Z,3.93
2023-03-15T07:19:12.632Z,9.37
2023-03-15T07:21:40.458Z,4.20
2023-03-15T07:24:08.259Z,5.00
2023-03-15T07:26:36.022Z,4.97
2023-03-15T07:29:03.769Z,5.47
2023-03-15T07:31:31.879Z,4.57
2023-03-15T07:33:59.556Z,6.93
2023-03-15T07:36:27.297Z,4.93
2023-03-15T07:38:54.994Z,5.60
2023-03-15T07:41:22.744Z,9.83
2023-03-15T07:44:06.091Z,7.73
2023-03-15T07:46:33.887Z,9.17
2023-03-15T07:49:01.676Z,6.63
2023-03-15T07:51:29.375Z,6.70
2023-03-15T07:53:57.069Z,5.83
2023-03-15T07:56:24.806Z,6.77
2023-03-15T07:58:52.464Z,9.27
2023-03-15T08:01:20.114Z,5.07
2023-03-15T08:03:47.858Z,4.37
2023-03-15T08:06:15.609Z,5.93
2023-03-15T08:08:43.352Z,3.13
2023-03-15T08:11:11.112Z,3.73
2023-03-15T08:13:38.848Z,2.97
2023-03-15T08:16:06.787Z,2.30
2023-03-15T08:18:34.528Z,3.10
2023-03-15T08:21:02.570Z,2.97
2023-03-15T08:23:30.411Z,2.40
2023-03-15T08:25:58.243Z,2.53
2023-03-15T08:28:25.956Z,2.63
2023-03-15T08:30:53.690Z,2.67
2023-03-15T08:33:22.261Z,2.37
2023-03-15T08:35:53.874Z,20.93
2023-03-15T08:38:21.808Z,6.23
2023-03-15T08:40:49.459Z,5.97
2023-03-15T08:43:17.289Z,2.63
2023-03-15T08:46:00.347Z,2.87
2023-03-15T08:48:29.724Z,2.10
2023-03-15T08:51:03.119Z,23.27
2023-03-15T08:53:31.367Z,4.90
2023-03-15T08:55:59.146Z,5.73
2023-03-15T08:58:26.900Z,5.37
2023-03-15T09:00:54.652Z,1.60
2023-03-15T09:03:22.641Z,4.83
2023-03-15T09:05:50.499Z,2.70
2023-03-15T09:08:21.229Z,2.90
2023-03-15T09:10:48.980Z,2.50
2023-03-15T09:13:16.664Z,3.37
2023-03-15T09:15:44.363Z,5.50
2023-03-15T09:18:12.109Z,5.83
2023-03-15T09:20:39.886Z,5.17
2023-03-15T09:23:07.881Z,5.40
2023-03-15T09:25:37.100Z,12.23
2023-03-15T09:28:05.761Z,4.10
2023-03-15T09:30:34.148Z,5.30
2023-03-15T09:33:01.909Z,7.17
2023-03-15T09:35:29.665Z,6.07
2023-03-15T09:37:57.393Z,4.97
2023-03-15T09:40:27.582Z,6.63
2023-03-15T09:43:04.439Z,3.87
2023-03-15T09:45:48.699Z,7.77
2023-03-15T09:48:25.605Z,14.73
2023-03-15T09:51:02.628Z,34.07
2023-03-15T09:53:37.706Z,18.30
2023-03-15T09:56:19.872Z,9.63
2023-03-15T09:58:47.594Z,6.13
2023-03-15T10:01:15.395Z,3.63
2023-03-15T10:03:52.102Z,7.57
2023-03-15T10:06:37.700Z,8.80
2023-03-15T10:09:16.973Z,5.23
2023-03-15T10:11:57.504Z,3.70
2023-03-15T10:14:55.534Z,4.47
2023-03-15T10:17:29.422Z,3.03
2023-03-15T10:20:02.864Z,5.10
2023-03-15T10:22:52.577Z,3.53
2023-03-15T10:25:23.845Z,2.30
2023-03-15T10:28:01.117Z,4.87
2023-03-15T10:30:33.626Z,5.63
2023-03-15T10:33:25.726Z,4.10
2023-03-15T10:36:01.193Z,1.73
2023-03-15T10:38:35.458Z,3.40
2023-03-15T10:41:03.655Z,2.87
2023-03-15T10:43:35.504Z,2.07
2023-03-15T10:46:13.248Z,2.77
2023-03-15T10:48:58.730Z,2.20
2023-03-15T10:51:31.536Z,6.60
2023-03-15T10:54:05.666Z,1.90
2023-03-15T10:56:38.325Z,10.67
2023-03-15T10:59:12.714Z,2.40
2023-03-15T11:01:40.840Z,2.90
2023-03-15T11:04:16.155Z,2.93
2023-03-15T11:07:04.380Z,4.33
2023-03-15T11:10:09.005Z,3.40
2023-03-15T11:12:36.772Z,6.00
2023-03-15T11:15:07.844Z,2.37
2023-03-15T11:17:41.453Z,2.77
2023-03-15T11:20:26.116Z,7.50
2023-03-15T11:22:53.891Z,6.03
2023-03-15T11:25:23.933Z,3.70
2023-03-15T11:27:53.715Z,9.73
2023-03-15T11:30:23.960Z,2.50
2023-03-15T11:32:51.679Z,1.70
2023-03-15T11:35:23.091Z,2.43
2023-03-15T11:38:12.974Z,5.37
2023-03-15T11:40:43.994Z,3.30
2023-03-15T11:43:11.551Z,2.37
2023-03-15T11:45:53.914Z,2.10
2023-03-15T11:48:57.583Z,1.67
2023-03-15T11:51:25.480Z,2.17
2023-03-15T11:54:04.174Z,3.37
2023-03-15T11:56:44.026Z,4.27
2023-03-15T11:59:44.084Z,3.30
2023-03-15T12:02:14.592Z,1.70
2023-03-15T12:04:43.939Z,9.90
2023-03-15T12:07:17.351Z,17.73
2023-03-15T12:09:56.264Z,7.97
2023-03-15T12:12:23.927Z,5.83
2023-03-15T12:15:19.475Z,8.57
2023-03-15T12:17:50.254Z,4.03
2023-03-15T12:20:37.865Z,3.93
2023-03-15T12:23:17.783Z,4.10
2023-03-15T12:26:03.618Z,2.33
2023-03-15T12:28:45.373Z,1.90
2023-03-15T12:31:13.743Z,10.80
2023-03-15T12:33:51.469Z,8.43
2023-03-15T12:36:39.527Z,10.20
2023-03-15T12:39:16.294Z,15.47
2023-03-15T12:41:48.951Z,4.90
2023-03-15T12:44:19.782Z,4.40
2023-03-15T12:46:47.369Z,6.17
2023-03-15T12:49:24.197Z,5.53
2023-03-15T12:51:58.093Z,6.90
2023-03-15T12:54:47.697Z,6.70
2023-03-15T12:57:22.140Z,9.10
2023-03-15T12:59:59.065Z,9.07
2023-03-15T13:02:44.134Z,3.07
2023-03-15T13:05:36.247Z,5.40
2023-03-15T13:08:22.199Z,3.83
2023-03-15T13:11:41.206Z,25.67
2023-03-15T13:14:43.134Z,6.90
2023-03-15T13:17:23.534Z,8.10
2023-03-15T13:20:28.446Z,25.43
2023-03-15T13:23:14.461Z,28.23
2023-03-15T13:25:45.256Z,7.73
2023-03-15T13:28:27.808Z,4.57
2023-03-15T13:30:56.900Z,5.27
2023-03-15T13:33:28.615Z,8.70
2023-03-15T13:36:03.723Z,9.37
2023-03-15T13:38:39.738Z,6.90
2023-03-15T13:41:26.494Z,6.87
2023-03-15T13:43:56.725Z,5.97
2023-03-15T13:46:26.715Z,5.67
2023-03-15T13:48:54.853Z,7.83
2023-03-15T13:51:27.647Z,16.83
2023-03-15T13:54:06.785Z,193.10
2023-03-15T13:56:51.388Z,61.33
2023-03-15T13:59:19.167Z,29.87
2023-03-15T14:01:46.907Z,72.27
2023-03-15T14:04:16.442Z,25.13
2023-03-15T14:06:45.805Z,17.80
2023-03-15T14:09:22.661Z,32.33
2023-03-15T14:12:04.394Z,18.93
2023-03-15T14:14:32.471Z,12.20
2023-03-15T14:17:06.297Z,5.17
2023-03-15T14:19:34.879Z,5.50
2023-03-15T14:22:04.887Z,7.63
2023-03-15T14:24:36.795Z,7.30
2023-03-15T14:27:09.280Z,5.40
2023-03-15T14:29:38.060Z,6.23
2023-03-15T14:32:22.918Z,10.33
2023-03-15T14:34:50.771Z,14.27
2023-03-15T14:37:36.924Z,9.77
2023-03-15T14:40:23.340Z,8.63
2023-03-15T14:42:51.145Z,13.00
2023-03-15T14:45:19.167Z,9.60
2023-03-15T14:47:56.861Z,11.60
2023-03-15T14:50:27.685Z,7.27
2023-03-15T14:52:56.628Z,9.87
2023-03-15T14:55:27.797Z,10.23
2023-03-15T14:57:55.496Z,6.53
2023-03-15T15:00:24.847Z,11.33
2023-03-15T15:02:53.870Z,9.57
2023-03-15T15:05:29.478Z,8.63
2023-03-15T15:08:10.630Z,6.43
2023-03-15T15:10:39.184Z,8.37
2023-03-15T15:13:07.509Z,7.20
2023-03-15T15:15:53.562Z,5.07
2023-03-15T15:18:23.898Z,10.97
2023-03-15T15:20:54.337Z,4.83
2023-03-15T15:23:29.506Z,34.07
2023-03-15T15:25:59.321Z,7.97
2023-03-15T15:28:35.320Z,9.43
2023-03-15T15:31:07.324Z,91.83
2023-03-15T15:33:35.291Z,29.40
2023-03-15T15:36:03.314Z,8.70
2023-03-15T15:38:34.840Z,11.17
2023-03-15T15:41:02.673Z,7.27
2023-03-15T15:43:33.413Z,5.80
2023-03-15T15:46:01.969Z,3.97
2023-03-15T15:48:29.845Z,12.53
2023-03-15T15:50:57.707Z,12.40
2023-03-15T15:53:31.617Z,39.27
2023-03-15T15:55:59.314Z,11.27
2023-03-15T15:58:26.992Z,9.77
2023-03-15T16:00:54.711Z,7.83
2023-03-15T16:03:22.563Z,21.17
2023-03-15T16:05:50.518Z,11.13
2023-03-15T16:08:22.578Z,6.60
2023-03-15T16:10:50.330Z,8.47
2023-03-15T16:13:18.091Z,10.70
2023-03-15T16:15:45.863Z,11.77
2023-03-15T16:18:13.622Z,12.83
2023-03-15T16:20:41.370Z,12.33
2023-03-15T16:23:15.217Z,9.43
2023-03-15T16:25:42.957Z,12.97
2023-03-15T16:28:11.331Z,11.33
2023-03-15T16:30:39.124Z,9.03
2023-03-15T16:33:20.106Z,8.43
2023-03-15T16:35:50.109Z,11.20
2023-03-15T16:38:24.262Z,15.17
2023-03-15T16:40:53.047Z,12.40
2023-03-15T16:43:20.913Z,8.90
2023-03-15T16:45:48.798Z,8.67
2023-03-15T16:48:16.588Z,9.93
2023-03-15T16:50:44.480Z,11.93
2023-03-15T16:53:12.657Z,5.40
2023-03-15T16:55:40.631Z,9.93
2023-03-15T16:58:18.424Z,7.53
2023-03-15T17:00:48.143Z,6.93
2023-03-15T17:03:16.688Z,11.07
2023-03-15T17:05:45.809Z,10.07
2023-03-15T17:08:16.266Z,6.87
2023-03-15T17:10:44.046Z,10.30
2023-03-15T17:13:15.747Z,6.00
2023-03-15T17:15:43.446Z,8.47
2023-03-15T17:18:16.748Z,9.27
2023-03-15T17:20:45.394Z,10.87
2023-03-15T17:23:13.107Z,16.63
2023-03-15T17:25:41.379Z,21.47
2023-03-15T17:28:09.123Z,19.90
2023-03-15T17:30:37.196Z,27.00
2023-03-15T17:33:05.379Z,28.00
2023-03-15T17:35:38.711Z,18.67
2023-03-15T17:38:07.126Z,23.23
2023-03-15T17:40:35.307Z,21.77
2023-03-15T17:43:03.474Z,26.53
2023-03-15T17:45:32.928Z,34.83
2023-03-15T17:48:01.211Z,26.87
2023-03-15T17:50:30.826Z,24.27
2023-03-15T17:53:03.235Z,33.07
2023-03-15T17:55:34.381Z,24.10
2023-03-15T17:58:03.091Z,14.77
2023-03-15T18:00:32.665Z,16.33
2023-03-15T18:03:00.936Z,13.00
2023-03-15T18:05:29.172Z,17.57
2023-03-15T18:07:59.775Z,13.37
2023-03-15T18:10:31.678Z,16.23
2023-03-15T18:12:59.401Z,25.17
2023-03-15T18:15:27.069Z,19.33
2023-03-15T18:17:54.888Z,23.17
2023-03-15T18:20:24.067Z,18.63
2023-03-15T18:22:52.147Z,22.30
2023-03-15T18:25:21.973Z,18.53
2023-03-15T18:27:50.070Z,14.33
2023-03-15T18:30:20.188Z,8.53
2023-03-15T18:32:48.120Z,6.00
2023-03-15T18:35:18.091Z,9.40
2023-03-15T18:37:46.241Z,4.90
2023-03-15T18:40:16.039Z,8.20
2023-03-15T18:42:43.958Z,6.40
2023-03-15T18:45:20.246Z,7.53
2023-03-15T18:47:48.372Z,12.43
2023-03-15T18:50:16.607Z,17.60
2023-03-15T18:52:44.518Z,13.00
2023-03-15T18:55:13.106Z,15.80
2023-03-15T18:57:44.999Z,15.07
2023-03-15T19:00:14.466Z,14.57
2023-03-15T19:02:45.851Z,17.47
2023-03-15T19:05:13.900Z,14.20
2023-03-15T19:07:41.761Z,32.97
2023-03-15T19:10:11.614Z,23.07
2023-03-15T19:12:40.828Z,22.87
2023-03-15T19:15:11.971Z,22.67
2023-03-15T19:17:39.812Z,22.80
2023-03-15T19:20:08.441Z,14.27
2023-03-15T19:22:36.192Z,12.53
2023-03-15T19:25:04.611Z,19.30
2023-03-15T19:27:32.408Z,17.27
2023-03-15T19:30:00.323Z,20.53
2023-03-15T19:32:29.965Z,14.40
2023-03-15T19:34:57.858Z,19.43
2023-03-15T19:37:25.603Z,16.90
2023-03-15T19:39:54.180Z,18.20
2023-03-15T19:42:21.883Z,17.37
2023-03-15T19:44:49.613Z,12.43
2023-03-15T19:47:17.303Z,11.67
2023-03-15T19:49:45.022Z,9.47
2023-03-15T19:52:15.704Z,14.27
2023-03-15T19:54:43.487Z,18.70
2023-03-15T19:57:11.894Z,15.80
2023-03-15T19:59:42.788Z,16.50
2023-03-15T20:02:11.084Z,11.67
2023-03-15T20:04:38.856Z,18.87
2023-03-15T20:07:06.620Z,19.07
2023-03-15T20:09:38.802Z,21.73
2023-03-15T20:12:07.192Z,24.30
2023-03-15T20:14:34.884Z,23.50
2023-03-15T20:17:03.329Z,17.43
2023-03-15T20:19:31.158Z,16.50
2023-03-15T20:21:58.930Z,14.87
2023-03-15T20:24:26.668Z,13.07
2023-03-15T20:26:54.404Z,12.73
2023-03-15T20:29:22.535Z,8.03
2023-03-15T20:31:50.982Z,6.90
2023-03-15T20:34:18.870Z,7.77
2023-03-15T20:36:46.576Z,9.97
2023-03-15T20:39:15.203Z,11.17
2023-03-15T20:41:42.844Z,7.57
2023-03-15T20:44:10.663Z,9.87
2023-03-15T20:46:39.853Z,10.40
2023-03-15T20:49:07.765Z,10.20
2023-03-15T20:51:35.904Z,10.87
2023-03-15T20:54:04.116Z,10.53
2023-03-15T20:56:33.610Z,12.23
2023-03-15T20:59:01.825Z,12.47
2023-03-15T21:01:29.517Z,16.47
2023-03-15T21:03:57.641Z,12.87
2023-03-15T21:06:25.431Z,17.57
2023-03-15T21:08:53.169Z,14.97
2023-03-15T21:11:20.901Z,13.47
2023-03-15T21:13:48.741Z,14.33
2023-03-15T21:16:16.781Z,13.50
2023-03-15T21:18:47.599Z,13.90
2023-03-15T21:21:15.450Z,25.43
2023-03-15T21:23:43.360Z,25.70
2023-03-15T21:26:12.162Z,18.90
2023-03-15T21:28:40.450Z,20.37
2023-03-15T21:31:08.372Z,13.47
2023-03-15T21:33:36.220Z,11.80
2023-03-15T21:36:04.073Z,19.87
2023-03-15T21:38:33.102Z,16.50
2023-03-15T21:41:00.980Z,23.33
2023-03-15T21:43:30.544Z,23.57
2023-03-15T21:46:09.102Z,13.10
2023-03-15T21:48:39.892Z,7.47
2023-03-15T21:51:07.842Z,12.50
2023-03-15T21:53:36.267Z,20.37
2023-03-15T21:56:04.380Z,16.60
2023-03-15T21:58:32.174Z,21.40
2023-03-15T22:01:01.301Z,11.43
2023-03-15T22:03:29.514Z,9.07
2023-03-15T22:05:57.380Z,6.90
2023-03-15T22:08:25.322Z,8.53
2023-03-15T22:10:57.310Z,15.23
2023-03-15T22:13:25.546Z,9.97
2023-03-15T22:15:53.564Z,10.83
2023-03-15T22:18:21.730Z,9.00
2023-03-15T22:20:50.275Z,7.37
2023-03-15T22:23:18.406Z,7.17
2023-03-15T22:25:46.115Z,8.17
2023-03-15T22:28:13.871Z,10.97
2023-03-15T22:30:41.845Z,6.77
2023-03-15T22:33:09.854Z,8.87
2023-03-15T22:35:37.636Z,10.47
2023-03-15T22:38:10.009Z,9.93
2023-03-15T22:40:39.280Z,9.40
2023-03-15T22:43:07.505Z,9.77
2023-03-15T22:45:35.323Z,6.73
2023-03-15T22:48:03.131Z,7.07
2023-03-15T22:50:30.876Z,11.47
2023-03-15T22:52:58.542Z,6.73
2023-03-15T22:55:26.248Z,8.60
2023-03-15T22:57:54.205Z,8.07
2023-03-15T23:00:22.224Z,8.00
2023-03-15T23:02:50.053Z,6.83
2023-03-15T23:05:19.595Z,6.40
2023-03-15T23:07:47.583Z,7.47
2023-03-15T23:10:15.406Z,8.27
2023-03-15T23:12:43.217Z,7.87
2023-03-15T23:15:13.312Z,7.20
2023-03-15T23:17:46.040Z,8.33
2023-03-15T23:20:15.103Z,8.50
2023-03-15T23:22:43.726Z,6.77
2023-03-15T23:25:12.018Z,9.13
2023-03-15T23:27:40.303Z,7.90
2023-03-15T23:30:08.730Z,8.07
2023-03-15T23:32:36.543Z,8.70
2023-03-15T23:35:05.415Z,7.60
2023-03-15T23:37:33.215Z,22.33
2023-03-15T23:40:01.880Z,27.17
2023-03-15T23:42:30.542Z,7.53
2023-03-15T23:44:58.219Z,7.77
2023-03-15T23:47:25.980Z,11.30
2023-03-15T23:49:53.725Z,7.07
2023-03-15T23:52:25.483Z,10.10
2023-03-15T23:54:53.985Z,5.50
2023-03-15T23:57:21.776Z,9.40
2023-03-15T23:59:49.638Z,9.50
